createdAt,value
2022-12-01T00:01:04.223Z,101450.73
2022-12-01T00:03:52.135Z,101444.43
2022-12-01T00:06:39.869Z,101440.75
2022-12-01T00:09:46.496Z,101442.31
2022-12-01T00:12:33.692Z,101442.67
2022-12-01T00:15:22.051Z,101442.66
2022-12-01T00:18:10.416Z,101442.11
2022-12-01T00:20:58.038Z,101445.80
2022-12-01T00:23:48.563Z,101448.95
2022-12-01T00:26:38.038Z,101447.05
2022-12-01T00:29:25.691Z,101449.52
2022-12-01T00:32:14.722Z,101453.16
2022-12-01T00:35:03.368Z,101448.25
2022-12-01T00:37:50.769Z,101446.10
2022-12-01T00:40:38.133Z,101444.54
2022-12-01T00:43:25.655Z,101441.93
2022-12-01T00:46:13.292Z,101443.51
2022-12-01T00:49:00.602Z,101440.02
2022-12-01T00:51:48.253Z,101434.44
2022-12-01T00:54:35.707Z,101439.47
2022-12-01T00:57:23.450Z,101437.86
2022-12-01T01:00:12.411Z,101433.13
2022-12-01T01:03:00.404Z,101435.02
2022-12-01T01:05:47.853Z,101438.46
2022-12-01T01:08:36.302Z,101436.85
2022-12-01T01:11:23.882Z,101432.98
2022-12-01T01:14:11.487Z,101437.13
2022-12-01T01:16:59.261Z,101435.02
2022-12-01T01:19:46.922Z,101433.64
2022-12-01T01:22:35.612Z,101427.02
2022-12-01T01:25:23.638Z,101432.45
2022-12-01T01:28:11.213Z,101432.58
2022-12-01T01:30:59.193Z,101434.31
2022-12-01T01:33:47.564Z,101431.21
2022-12-01T01:36:35.189Z,101436.30
2022-12-01T01:39:23.180Z,101436.81
2022-12-01T01:42:14.302Z,101439.09
2022-12-01T01:45:01.942Z,101439.43
2022-12-01T01:47:52.882Z,101437.74
2022-12-01T01:50:40.502Z,101435.81
2022-12-01T01:53:29.590Z,101432.97
2022-12-01T01:56:17.612Z,101432.91
2022-12-01T01:59:05.130Z,101435.66
2022-12-01T02:02:02.237Z,101431.80
2022-12-01T02:04:57.490Z,101433.70
2022-12-01T02:07:47.157Z,101433.13
2022-12-01T02:10:53.192Z,101431.51
2022-12-01T02:14:06.672Z,101431.80
2022-12-01T02:17:17.486Z,101435.46
2022-12-01T02:20:42.565Z,101437.55
2022-12-01T02:24:02.946Z,101431.44
2022-12-01T02:27:42.179Z,101437.23
2022-12-01T02:31:08.892Z,101432.52
2022-12-01T02:34:04.729Z,101429.02
2022-12-01T02:37:25.128Z,101427.40
2022-12-01T02:40:23.216Z,101425.47
2022-12-01T02:43:22.421Z,101429.84
2022-12-01T02:46:47.618Z,101427.92
2022-12-01T02:49:41.255Z,101428.31
2022-12-01T02:52:29.758Z,101425.89
2022-12-01T02:55:17.547Z,101425.38
2022-12-01T02:58:14.966Z,101424.81
2022-12-01T03:01:38.056Z,101421.78
2022-12-01T03:04:52.599Z,101420.21
2022-12-01T03:08:00.172Z,101418.64
2022-12-01T03:10:59.616Z,101418.95
2022-12-01T03:14:01.354Z,101416.34
2022-12-01T03:16:54.507Z,101415.06
2022-12-01T03:19:53.543Z,101413.96
2022-12-01T03:22:52.248Z,101411.37
2022-12-01T03:25:44.725Z,101413.86
2022-12-01T03:28:38.002Z,101410.20
2022-12-01T03:31:37.809Z,101411.75
2022-12-01T03:34:44.003Z,101411.48
2022-12-01T03:37:43.332Z,101415.38
2022-12-01T03:40:33.690Z,101415.80
2022-12-01T03:43:28.145Z,101416.52
2022-12-01T03:46:44.642Z,101415.49
2022-12-01T03:49:33.160Z,101417.61
2022-12-01T03:52:44.032Z,101412.73
2022-12-01T03:55:38.110Z,101410.11
2022-12-01T03:58:34.339Z,101409.73
2022-12-01T04:01:22.498Z,101409.02
2022-12-01T04:04:13.344Z,101410.00
2022-12-01T04:07:01.119Z,101410.88
2022-12-01T04:09:48.910Z,101406.48
2022-12-01T04:12:36.989Z,101404.01
2022-12-01T04:15:25.749Z,101406.27
2022-12-01T04:18:13.366Z,101408.73
2022-12-01T04:21:00.703Z,101410.64
2022-12-01T04:24:00.279Z,101407.66
2022-12-01T04:26:48.158Z,101408.30
2022-12-01T04:29:35.744Z,101411.23
2022-12-01T04:32:23.297Z,101410.50
2022-12-01T04:35:12.757Z,101412.80
2022-12-01T04:38:00.078Z,101410.72
2022-12-01T04:40:47.371Z,101411.06
2022-12-01T04:43:34.662Z,101408.30
2022-12-01T04:46:23.698Z,101412.35
2022-12-01T04:49:11.341Z,101411.48
2022-12-01T04:51:59.357Z,101416.03
2022-12-01T04:54:46.943Z,101418.15
2022-12-01T04:57:34.566Z,101419.48
2022-12-01T05:00:22.137Z,101420.59
2022-12-01T05:03:14.901Z,101420.25
2022-12-01T05:06:10.026Z,101422.53
2022-12-01T05:09:00.829Z,101420.64
2022-12-01T05:11:48.460Z,101421.17
2022-12-01T05:14:35.991Z,101419.23
2022-12-01T05:17:23.630Z,101423.25
2022-12-01T05:20:39.108Z,101423.98
2022-12-01T05:23:30.030Z,101423.86
2022-12-01T05:26:17.492Z,101419.69
2022-12-01T05:29:05.268Z,101421.79
2022-12-01T05:31:53.116Z,101424.73
2022-12-01T05:34:40.490Z,101428.77
2022-12-01T05:37:33.274Z,101434.33
2022-12-01T05:40:20.680Z,101434.35
2022-12-01T05:43:08.483Z,101434.02
2022-12-01T05:45:56.495Z,101436.45
2022-12-01T05:48:44.142Z,101436.96
2022-12-01T05:51:31.719Z,101437.70
2022-12-01T05:54:19.390Z,101438.77
2022-12-01T05:57:06.774Z,101438.42
2022-12-01T05:59:54.239Z,101438.99
2022-12-01T06:02:42.941Z,101443.91
2022-12-01T06:05:30.499Z,101446.02
2022-12-01T06:08:17.869Z,101445.12
2022-12-01T06:11:06.188Z,101444.58
2022-12-01T06:13:53.980Z,101451.92
2022-12-01T06:16:41.683Z,101455.27
2022-12-01T06:19:29.672Z,101458.44
2022-12-01T06:22:17.627Z,101455.48
2022-12-01T06:25:05.930Z,101459.88
2022-12-01T06:27:59.706Z,101458.67
2022-12-01T06:30:47.385Z,101463.37
2022-12-01T06:33:34.974Z,101469.48
2022-12-01T06:36:22.752Z,101466.55
2022-12-01T06:39:10.867Z,101466.89
2022-12-01T06:41:58.586Z,101468.30
2022-12-01T06:44:46.343Z,101470.77
2022-12-01T06:47:34.187Z,101471.85
2022-12-01T06:50:22.594Z,101478.50
2022-12-01T06:53:11.515Z,101475.56
2022-12-01T06:56:04.461Z,101478.88
2022-12-01T06:58:53.335Z,101478.54
2022-12-01T07:01:41.064Z,101476.78
2022-12-01T07:04:30.265Z,101475.58
2022-12-01T07:07:17.949Z,101478.69
2022-12-01T07:10:07.223Z,101478.70
2022-12-01T07:12:57.253Z,101478.04
2022-12-01T07:15:45.164Z,101477.89
2022-12-01T07:18:34.338Z,101481.39
2022-12-01T07:21:22.345Z,101478.30
2022-12-01T07:24:10.390Z,101481.42
2022-12-01T07:26:58.321Z,101481.73
2022-12-01T07:29:45.548Z,101485.05
2022-12-01T07:32:33.428Z,101483.02
2022-12-01T07:35:22.305Z,101482.52
2022-12-01T07:38:09.922Z,101481.86
2022-12-01T07:41:15.368Z,101485.55
2022-12-01T07:44:03.524Z,101486.97
2022-12-01T07:46:51.431Z,101484.64
2022-12-01T07:49:39.171Z,101484.88
2022-12-01T07:52:26.719Z,101485.11
2022-12-01T07:55:14.443Z,101483.65
2022-12-01T07:58:02.325Z,101484.99
2022-12-01T08:00:50.065Z,101484.15
2022-12-01T08:03:38.767Z,101487.97
2022-12-01T08:06:27.271Z,101483.95
2022-12-01T08:09:15.191Z,101486.02
2022-12-01T08:12:02.783Z,101489.83
2022-12-01T08:14:50.071Z,101487.77
2022-12-01T08:17:37.974Z,101490.35
2022-12-01T08:20:25.554Z,101488.59
2022-12-01T08:23:13.251Z,101489.59
2022-12-01T08:26:03.031Z,101491.64
2022-12-01T08:28:50.814Z,101492.31
2022-12-01T08:31:39.395Z,101496.17
2022-12-01T08:34:27.435Z,101500.00
2022-12-01T08:37:14.938Z,101499.30
2022-12-01T08:40:02.926Z,101500.81
2022-12-01T08:42:52.700Z,101497.10
2022-12-01T08:45:40.249Z,101496.77
2022-12-01T08:48:31.440Z,101495.19
2022-12-01T08:51:19.366Z,101496.04
2022-12-01T08:54:07.135Z,101496.52
2022-12-01T08:56:54.879Z,101496.15
2022-12-01T08:59:44.231Z,101497.54
2022-12-01T09:02:31.802Z,101505.04
2022-12-01T09:05:19.572Z,101501.21
2022-12-01T09:08:25.512Z,101504.56
2022-12-01T09:11:17.450Z,101508.56
2022-12-01T09:14:05.370Z,101504.43
2022-12-01T09:16:53.272Z,101503.37
2022-12-01T09:19:40.738Z,101503.55
2022-12-01T09:22:28.294Z,101500.98
2022-12-01T09:25:15.933Z,101500.39
2022-12-01T09:28:03.634Z,101492.96
2022-12-01T09:30:51.340Z,101486.62
2022-12-01T09:33:39.611Z,101478.74
2022-12-01T09:36:28.995Z,101480.81
2022-12-01T09:39:21.140Z,101479.69
2022-12-01T09:42:15.529Z,101480.71
2022-12-01T09:45:05.077Z,101474.52
2022-12-01T09:47:55.629Z,101471.81
2022-12-01T09:50:43.694Z,101467.15
2022-12-01T09:53:31.331Z,101467.48
2022-12-01T09:56:25.036Z,101457.70
2022-12-01T09:59:43.253Z,101456.77
2022-12-01T10:02:37.101Z,101452.77
2022-12-01T10:05:31.616Z,101447.34
2022-12-01T10:08:26.936Z,101447.20
2022-12-01T10:11:37.022Z,101441.86
2022-12-01T10:14:24.574Z,101437.92
2022-12-01T10:17:48.821Z,101437.48
2022-12-01T10:21:03.676Z,101440.24
2022-12-01T10:24:09.791Z,101443.17
2022-12-01T10:27:23.271Z,101438.52
2022-12-01T10:30:39.337Z,101441.43
2022-12-01T10:33:35.899Z,101439.43
2022-12-01T10:36:25.084Z,101442.05
2022-12-01T10:39:27.602Z,101441.51
2022-12-01T10:42:39.948Z,101446.52
2022-12-01T10:45:34.616Z,101444.89
2022-12-01T10:48:23.522Z,101441.71
2022-12-01T10:51:17.687Z,101437.81
2022-12-01T10:54:11.688Z,101439.88
2022-12-01T10:56:59.716Z,101438.80
2022-12-01T10:59:55.644Z,101441.52
2022-12-01T11:02:43.695Z,101438.06
2022-12-01T11:05:42.400Z,101430.11
2022-12-01T11:08:41.711Z,101430.19
2022-12-01T11:11:40.692Z,101427.02
2022-12-01T11:14:47.201Z,101417.27
2022-12-01T11:17:44.945Z,101417.93
2022-12-01T11:20:39.691Z,101419.08
2022-12-01T11:23:29.403Z,101423.17
2022-12-01T11:26:25.678Z,101419.52
2022-12-01T11:29:37.571Z,101418.37
2022-12-01T11:32:32.598Z,101417.39
2022-12-01T11:35:24.030Z,101412.92
2022-12-01T11:38:30.682Z,101418.59
2022-12-01T11:41:45.194Z,101415.33
2022-12-01T11:44:50.870Z,101415.96
2022-12-01T11:48:03.446Z,101416.73
2022-12-01T11:51:09.931Z,101413.63
2022-12-01T11:54:29.996Z,101413.34
2022-12-01T11:57:33.803Z,101414.96
2022-12-01T12:00:26.643Z,101411.83
2022-12-01T12:03:26.330Z,101409.11
2022-12-01T12:06:40.537Z,101411.55
2022-12-01T12:10:01.459Z,101414.16
2022-12-01T12:13:16.342Z,101411.08
2022-12-01T12:16:33.488Z,101414.20
2022-12-01T12:20:13.981Z,101416.80
2022-12-01T12:23:34.770Z,101421.27
2022-12-01T12:26:30.700Z,101419.91
2022-12-01T12:29:43.847Z,101417.89
2022-12-01T12:33:19.514Z,101415.91
2022-12-01T12:36:43.592Z,101415.75
2022-12-01T12:40:08.651Z,101417.20
2022-12-01T12:43:04.554Z,101411.70
2022-12-01T12:46:14.383Z,101413.44
2022-12-01T12:49:32.489Z,101411.84
2022-12-01T12:52:33.728Z,101408.34
2022-12-01T12:55:34.040Z,101411.61
2022-12-01T12:58:40.342Z,101410.80
2022-12-01T13:01:36.750Z,101416.52
2022-12-01T13:04:38.010Z,101406.70
2022-12-01T13:07:59.797Z,101402.69
2022-12-01T13:11:03.159Z,101405.39
2022-12-01T13:14:17.661Z,101401.56
2022-12-01T13:17:23.436Z,101400.55
2022-12-01T13:20:17.599Z,101397.82
2022-12-01T13:23:06.047Z,101398.88
2022-12-01T13:25:57.701Z,101401.16
2022-12-01T13:28:55.568Z,101401.14
2022-12-01T13:31:52.129Z,101399.90
2022-12-01T13:34:47.608Z,101399.77
2022-12-01T13:37:38.708Z,101402.05
2022-12-01T13:40:31.457Z,101396.65
2022-12-01T13:43:23.163Z,101399.30
2022-12-01T13:46:22.976Z,101396.38
2022-12-01T13:49:35.048Z,101391.69
2022-12-01T13:52:22.329Z,101396.94
2022-12-01T13:55:10.202Z,101393.15
2022-12-01T13:57:57.675Z,101391.22
2022-12-01T14:00:45.490Z,101387.68
2022-12-01T14:03:41.200Z,101385.20
2022-12-01T14:06:49.080Z,101380.83
2022-12-01T14:09:41.125Z,101385.71
2022-12-01T14:12:34.703Z,101384.48
2022-12-01T14:15:35.204Z,101387.80
2022-12-01T14:18:37.324Z,101387.79
2022-12-01T14:21:49.738Z,101384.30
2022-12-01T14:24:52.972Z,101379.11
2022-12-01T14:27:43.865Z,101378.26
2022-12-01T14:30:46.515Z,101380.37
2022-12-01T14:34:01.430Z,101377.75
2022-12-01T14:37:23.053Z,101380.05
2022-12-01T14:40:20.164Z,101381.98
2022-12-01T14:43:31.363Z,101380.77
2022-12-01T14:46:24.576Z,101379.15
2022-12-01T14:49:26.361Z,101375.64
2022-12-01T14:52:29.112Z,101375.98
2022-12-01T14:55:31.525Z,101372.52
2022-12-01T14:58:28.395Z,101375.51
2022-12-01T15:01:16.666Z,101378.44
2022-12-01T15:04:06.398Z,101378.02
2022-12-01T15:06:57.407Z,101374.45
2022-12-01T15:10:06.577Z,101373.20
2022-12-01T15:12:54.896Z,101370.16
2022-12-01T15:15:55.873Z,101373.48
2022-12-01T15:18:43.610Z,101366.66
2022-12-01T15:21:32.302Z,101364.75
2022-12-01T15:24:25.365Z,101362.14
2022-12-01T15:27:32.812Z,101363.41
2022-12-01T15:30:20.967Z,101362.92
2022-12-01T15:33:25.462Z,101365.21
2022-12-01T15:36:15.463Z,101358.58
2022-12-01T15:39:07.036Z,101353.95
2022-12-01T15:41:55.849Z,101351.98
2022-12-01T15:44:43.671Z,101356.65
2022-12-01T15:47:43.022Z,101355.77
2022-12-01T15:50:41.247Z,101351.88
2022-12-01T15:53:36.516Z,101346.64
2022-12-01T15:56:38.113Z,101350.85
2022-12-01T15:59:46.774Z,101352.13
2022-12-01T16:02:34.537Z,101350.52
2022-12-01T16:05:34.922Z,101340.90
2022-12-01T16:08:28.034Z,101344.23
2022-12-01T16:11:22.941Z,101347.84
2022-12-01T16:14:22.262Z,101346.92
2022-12-01T16:17:11.144Z,101344.28
2022-12-01T16:20:21.987Z,101341.81
2022-12-01T16:23:20.676Z,101340.11
2022-12-01T16:26:08.985Z,101341.21
2022-12-01T16:28:57.195Z,101340.60
2022-12-01T16:32:12.825Z,101340.48
2022-12-01T16:34:53.315Z,101339.97
2022-12-01T16:37:40.838Z,101338.76
2022-12-01T16:40:28.645Z,101343.46
2022-12-01T16:43:19.831Z,101341.68
2022-12-01T16:46:13.657Z,101336.58
2022-12-01T16:49:01.647Z,101332.87
2022-12-01T16:51:56.169Z,101334.45
2022-12-01T16:54:44.597Z,101332.85
2022-12-01T16:57:32.122Z,101331.67
2022-12-01T17:00:20.180Z,101334.86
2022-12-01T17:03:10.881Z,101336.83
2022-12-01T17:06:03.968Z,101340.48
2022-12-01T17:08:52.000Z,101340.28
2022-12-01T17:11:39.384Z,101336.41
2022-12-01T17:14:26.723Z,101336.84
2022-12-01T17:17:14.820Z,101336.27
2022-12-01T17:20:04.596Z,101338.70
2022-12-01T17:22:52.020Z,101338.89
2022-12-01T17:25:42.335Z,101340.12
2022-12-01T17:28:29.758Z,101338.70
2022-12-01T17:31:17.436Z,101335.02
2022-12-01T17:34:05.473Z,101336.08
2022-12-01T17:36:53.345Z,101334.66
2022-12-01T17:39:41.089Z,101336.08
2022-12-01T17:42:32.602Z,101337.53
2022-12-01T17:45:21.429Z,101342.61
2022-12-01T17:48:10.755Z,101342.48
2022-12-01T17:50:58.950Z,101348.64
2022-12-01T17:53:46.695Z,101348.83
2022-12-01T17:56:35.079Z,101350.88
2022-12-01T17:59:23.000Z,101352.10
2022-12-01T18:02:12.970Z,101347.40
2022-12-01T18:05:00.542Z,101349.52
2022-12-01T18:07:48.503Z,101346.05
2022-12-01T18:10:36.634Z,101345.20
2022-12-01T18:13:24.309Z,101345.37
2022-12-01T18:16:22.775Z,101350.44
2022-12-01T18:19:11.171Z,101352.00
2022-12-01T18:21:59.631Z,101352.64
2022-12-01T18:24:47.178Z,101355.92
2022-12-01T18:27:36.040Z,101351.89
2022-12-01T18:30:23.439Z,101349.80
2022-12-01T18:33:13.271Z,101352.45
2022-12-01T18:36:01.058Z,101351.95
2022-12-01T18:38:50.642Z,101352.52
2022-12-01T18:41:38.984Z,101356.39
2022-12-01T18:44:26.665Z,101357.88
2022-12-01T18:47:14.210Z,101355.27
2022-12-01T18:50:03.154Z,101356.52
2022-12-01T18:52:50.918Z,101354.42
2022-12-01T18:55:39.517Z,101355.41
2022-12-01T18:58:27.114Z,101353.40
2022-12-01T19:01:37.185Z,101353.20
2022-12-01T19:04:24.805Z,101352.50
2022-12-01T19:07:12.615Z,101346.55
2022-12-01T19:10:01.751Z,101348.70
2022-12-01T19:12:49.947Z,101353.10
2022-12-01T19:15:37.685Z,101353.09
2022-12-01T19:18:25.470Z,101349.95
2022-12-01T19:21:18.117Z,101349.78
2022-12-01T19:24:06.267Z,101352.27
2022-12-01T19:26:53.838Z,101348.11
2022-12-01T19:29:42.172Z,101344.59
2022-12-01T19:32:34.192Z,101344.88
2022-12-01T19:35:21.960Z,101338.74
2022-12-01T19:38:09.756Z,101339.20
2022-12-01T19:40:57.201Z,101334.13
2022-12-01T19:43:44.642Z,101336.58
2022-12-01T19:46:32.498Z,101337.13
2022-12-01T19:49:20.559Z,101338.59
2022-12-01T19:52:08.281Z,101340.36
2022-12-01T19:54:56.320Z,101340.00
2022-12-01T19:57:43.620Z,101335.42
2022-12-01T20:00:32.146Z,101333.27
2022-12-01T20:03:21.349Z,101336.58
2022-12-01T20:06:17.376Z,101329.34
2022-12-01T20:09:07.501Z,101331.80
2022-12-01T20:11:55.268Z,101328.85
2022-12-01T20:14:42.892Z,101326.81
2022-12-01T20:17:30.939Z,101329.67
2022-12-01T20:20:18.999Z,101326.72
2022-12-01T20:23:08.997Z,101325.70
2022-12-01T20:26:00.807Z,101325.75
2022-12-01T20:28:51.638Z,101324.92
2022-12-01T20:31:41.228Z,101327.58
2022-12-01T20:34:33.402Z,101325.64
2022-12-01T20:37:20.881Z,101326.86
2022-12-01T20:40:09.090Z,101328.31
2022-12-01T20:42:56.771Z,101327.50
2022-12-01T20:45:44.910Z,101325.27
2022-12-01T20:48:33.704Z,101329.48
2022-12-01T20:51:21.392Z,101329.34
2022-12-01T20:54:27.848Z,101331.81
2022-12-01T20:57:16.664Z,101328.85
2022-12-01T21:00:06.011Z,101327.62
2022-12-01T21:03:00.156Z,101332.34
2022-12-01T21:05:47.852Z,101333.37
2022-12-01T21:08:41.574Z,101328.21
2022-12-01T21:11:53.120Z,101322.91
2022-12-01T21:15:17.683Z,101328.33
2022-12-01T21:18:12.763Z,101333.87
2022-12-01T21:21:12.461Z,101336.13
2022-12-01T21:24:14.023Z,101330.71
2022-12-01T21:27:12.751Z,101332.32
2022-12-01T21:30:00.728Z,101330.29
2022-12-01T21:32:49.652Z,101335.85
2022-12-01T21:35:37.678Z,101329.88
2022-12-01T21:38:25.577Z,101330.89
2022-12-01T21:41:21.049Z,101327.16
2022-12-01T21:44:18.215Z,101324.49
2022-12-01T21:47:20.765Z,101326.09
2022-12-01T21:50:18.029Z,101321.89
2022-12-01T21:53:18.245Z,101321.04
2022-12-01T21:56:06.064Z,101318.79
2022-12-01T21:58:58.954Z,101318.65
2022-12-01T22:01:53.473Z,101319.02
2022-12-01T22:04:41.053Z,101318.14
2022-12-01T22:07:28.707Z,101315.52
2022-12-01T22:11:10.033Z,101314.85
2022-12-01T22:14:29.074Z,101313.43
2022-12-01T22:17:21.377Z,101316.06
2022-12-01T22:20:22.419Z,101312.94
2022-12-01T22:23:12.858Z,101316.81
2022-12-01T22:26:00.380Z,101317.90
2022-12-01T22:28:55.569Z,101320.40
2022-12-01T22:31:43.052Z,101316.56
2022-12-01T22:34:30.857Z,101318.64
2022-12-01T22:37:25.386Z,101315.10
2022-12-01T22:40:35.907Z,101314.73
2022-12-01T22:43:28.382Z,101312.00
2022-12-01T22:46:16.911Z,101307.58
2022-12-01T22:49:10.311Z,101305.77
2022-12-01T22:52:20.329Z,101307.00
2022-12-01T22:55:15.522Z,101303.31
2022-12-01T22:58:26.676Z,101303.83
2022-12-01T23:01:25.342Z,101298.44
2022-12-01T23:04:23.650Z,101298.95
2022-12-01T23:07:26.957Z,101295.30
2022-12-01T23:10:22.826Z,101293.88
2022-12-01T23:13:28.595Z,101295.25
2022-12-01T23:16:15.896Z,101293.79
2022-12-01T23:19:03.187Z,101289.64
2022-12-01T23:21:52.767Z,101289.93
2022-12-01T23:24:40.508Z,101291.36
2022-12-01T23:27:28.041Z,101288.19
2022-12-01T23:30:18.397Z,101284.80
2022-12-01T23:33:16.862Z,101281.95
2022-12-01T23:36:15.987Z,101286.16
2022-12-01T23:39:11.546Z,101285.10
2022-12-01T23:42:00.161Z,101284.98
2022-12-01T23:44:49.782Z,101283.58
2022-12-01T23:47:37.520Z,101278.11
2022-12-01T23:50:27.506Z,101279.61
2022-12-01T23:53:31.330Z,101281.28
2022-12-01T23:56:26.827Z,101284.02
2022-12-01T23:59:14.585Z,101280.52
